Time;durP1;ratioP1;P1;durP2;ratioP2;P2;SDS_P1;SDS_P2;PMS_P1;PMS_P2;Temp;Humidity;BMP_temperature;BMP_pressure;BME280_temperature;BME280_humidity;BME280_pressure;Samples;Min_cycle;Max_cycle;Signal;HPM_P1;HPM_P2
2023/09/16 00:00:19;;;;;;;;;;;;;;;22.27;51.13;99773.31;5060370;28;19955;-78
2023/09/16 00:02:44;;;;;;;;;;;;;;;22.29;51.95;99773.88;5077233;28;19921;-76
2023/09/16 00:05:09;;;;;;;;;;;;;;;22.28;51.76;99778.47;5076438;28;20003;-78
2023/09/16 00:07:35;;;;;;;;;;;;;;;22.25;52.25;99787.03;5073986;28;19961;-77
2023/09/16 00:10:00;;;;;;;;;;;;;;;22.20;51.31;99795.84;5074006;28;20393;-77
2023/09/16 00:12:26;;;;;;;;;;;;;;;22.18;51.00;99806.03;5055921;28;19923;-77
2023/09/16 00:14:52;;;;;;;;;;;;;;;22.13;51.71;99818.59;5073549;28;20316;-77
2023/09/16 00:17:17;;;;;;;;;;;;;;;22.06;52.24;99818.75;5073599;28;19919;-77
2023/09/16 00:19:42;;;;;;;;;;;;;;;22.05;51.64;99829.75;5073439;28;19920;-77
2023/09/16 00:22:11;;;;;;;;;;;;;;;22.12;51.21;99833.09;5073495;28;19913;-77
2023/09/16 00:24:37;;;;;;;;;;;;;;;22.17;52.06;99831.28;5073371;28;20377;-78
2023/09/16 00:27:02;;;;;;;;;;;;;;;22.26;51.25;99833.56;5073327;28;19944;-77
2023/09/16 00:29:27;;;;;;;;;;;;;;;22.32;51.60;99841.50;5055221;28;20397;-78
2023/09/16 00:31:52;;;;;;;;;;;;;;;22.33;53.97;99840.44;5073070;28;19924;-77
2023/09/16 00:34:18;;;;;;;;;;;;;;;22.33;51.69;99845.81;5073062;28;20409;-76
2023/09/16 00:36:43;;;;;;;;;;;;;;;22.38;51.99;99842.38;5073172;28;19991;-77
2023/09/16 00:39:09;;;;;;;;;;;;;;;22.39;52.47;99844.81;5072896;28;20316;-77
2023/09/16 00:41:35;;;;;;;;;;;;;;;22.38;55.75;99845.88;5054891;28;20366;-77
2023/09/16 00:44:00;;;;;;;;;;;;;;;22.25;57.57;99848.06;5072987;28;19940;-77
2023/09/16 00:46:25;;;;;;;;;;;;;;;22.25;54.03;99837.31;5073048;28;19951;-77
2023/09/16 00:48:50;;;;;;;;;;;;;;;22.22;55.94;99843.19;5072194;28;19904;-76
2023/09/16 00:51:16;;;;;;;;;;;;;;;22.09;56.28;99847.84;5072743;28;20381;-77
2023/09/16 00:53:42;;;;;;;;;;;;;;;22.10;57.48;99838.72;5072531;28;19916;-76
2023/09/16 00:56:08;;;;;;;;;;;;;;;22.09;55.09;99844.34;5072619;28;20355;-77
2023/09/16 00:58:34;;;;;;;;;;;;;;;22.15;54.86;99836.09;5072380;28;20003;-77
2023/09/16 01:01:00;;;;;;;;;;;;;;;22.24;55.11;99841.06;5054480;28;20439;-77
2023/09/16 01:03:26;;;;;;;;;;;;;;;22.30;56.69;99845.50;5072470;28;19912;-76
2023/09/16 01:05:52;;;;;;;;;;;;;;;22.36;55.67;99850.69;5072639;28;20320;-76
2023/09/16 01:08:18;;;;;;;;;;;;;;;22.40;55.00;99845.63;5073131;28;19986;-76
2023/09/16 01:10:43;;;;;;;;;;;;;;;22.46;57.52;99850.84;5076936;28;20381;-77
2023/09/16 01:13:09;;;;;;;;;;;;;;;22.50;56.20;99856.53;5074041;28;19917;-77
2023/09/16 01:15:39;;;;;;;;;;;;;;;22.54;55.33;99856.84;5072741;28;19913;-77
2023/09/16 01:18:07;;;;;;;;;;;;;;;22.60;54.22;99861.25;5072740;28;19920;-77
2023/09/16 01:20:32;;;;;;;;;;;;;;;22.64;55.16;99860.50;5072561;28;20339;-76
2023/09/16 01:22:58;;;;;;;;;;;;;;;22.67;55.02;99862.69;5072273;28;19912;-77
2023/09/16 01:25:27;;;;;;;;;;;;;;;22.69;55.33;99863.25;5072162;28;19934;-77
2023/09/16 01:27:52;;;;;;;;;;;;;;;22.68;54.85;99864.31;5072266;28;19919;-76
2023/09/16 01:30:17;;;;;;;;;;;;;;;22.69;56.49;99865.13;5072260;28;19913;-76
2023/09/16 01:32:43;;;;;;;;;;;;;;;22.64;57.02;99867.75;5058707;28;19974;-76
2023/09/16 01:35:10;;;;;;;;;;;;;;;22.60;57.37;99872.00;5073700;28;19912;-77
2023/09/16 01:37:37;;;;;;;;;;;;;;;22.58;56.98;99872.25;5072512;28;19920;-78
2023/09/16 01:40:10;;;;;;;;;;;;;;;22.57;56.23;99884.09;5054365;28;20312;-77
2023/09/16 01:42:35;;;;;;;;;;;;;;;22.60;55.68;99886.28;5071928;28;19916;-77
2023/09/16 01:45:01;;;;;;;;;;;;;;;22.60;56.41;99886.28;5054010;28;19913;-77
2023/09/16 01:47:26;;;;;;;;;;;;;;;22.61;56.90;99889.78;5053956;28;19919;-77
2023/09/16 01:49:52;;;;;;;;;;;;;;;22.61;54.31;99887.91;5071873;28;19963;-77
2023/09/16 01:52:17;;;;;;;;;;;;;;;22.58;56.28;99885.72;5071857;28;20468;-76
2023/09/16 01:54:42;;;;;;;;;;;;;;;22.63;55.75;99887.66;5071832;28;19966;-77
2023/09/16 01:57:07;;;;;;;;;;;;;;;22.66;54.78;99892.53;5071827;28;19920;-77
2023/09/16 01:59:33;;;;;;;;;;;;;;;22.68;55.10;99888.53;5071704;28;19935;-78
2023/09/16 02:01:58;;;;;;;;;;;;;;;22.68;54.88;99885.84;5071437;28;19921;-77
2023/09/16 02:04:23;;;;;;;;;;;;;;;22.68;54.77;99887.72;5071844;28;19970;-78
2023/09/16 02:06:48;;;;;;;;;;;;;;;22.69;56.11;99887.47;5053712;28;19912;-77
2023/09/16 02:09:14;;;;;;;;;;;;;;;22.68;55.82;99882.34;5071758;28;20031;-77
2023/09/16 02:11:39;;;;;;;;;;;;;;;22.67;56.04;99881.53;5053491;28;19917;-76
2023/09/16 02:14:05;;;;;;;;;;;;;;;22.67;55.91;99881.53;5071604;28;19920;-77
2023/09/16 02:16:30;;;;;;;;;;;;;;;22.64;56.74;99878.50;5053601;28;20003;-77
2023/09/16 02:18:56;;;;;;;;;;;;;;;22.58;54.72;99885.72;5071586;28;19919;-76
2023/09/16 02:21:22;;;;;;;;;;;;;;;22.59;55.30;99878.44;5071526;28;19915;-76
2023/09/16 02:23:47;;;;;;;;;;;;;;;22.51;54.50;99885.88;5053482;28;19993;-77
2023/09/16 02:26:13;;;;;;;;;;;;;;;22.46;55.84;99887.69;5071388;28;19974;-76
2023/09/16 02:28:40;;;;;;;;;;;;;;;22.35;55.32;99892.09;5053268;28;20456;-77
2023/09/16 02:31:05;;;;;;;;;;;;;;;22.29;55.25;99892.25;5071214;28;20054;-77
2023/09/16 02:33:30;;;;;;;;;;;;;;;22.29;55.10;99886.88;5071374;28;20007;-77
2023/09/16 02:35:56;;;;;;;;;;;;;;;22.28;54.40;99890.63;5071445;28;20009;-77
2023/09/16 02:38:21;;;;;;;;;;;;;;;22.22;54.45;99891.59;5053404;28;19913;-77
2023/09/16 02:40:46;;;;;;;;;;;;;;;22.10;55.90;99897.06;5053456;28;19912;-77
2023/09/16 02:43:11;;;;;;;;;;;;;;;21.95;56.24;99894.09;5071383;28;19919;-77
2023/09/16 02:45:43;;;;;;;;;;;;;;;21.88;55.60;99899.63;5071362;28;19967;-76
2023/09/16 02:48:08;;;;;;;;;;;;;;;21.84;56.00;99895.81;5071263;28;19913;-77
2023/09/16 02:50:34;;;;;;;;;;;;;;;21.78;55.61;99894.91;5071335;28;20298;-76
2023/09/16 02:52:59;;;;;;;;;;;;;;;21.72;57.08;99892.38;5071114;28;19921;-77
2023/09/16 02:55:25;;;;;;;;;;;;;;;21.60;57.83;99895.13;5071090;28;19935;-76
2023/09/16 02:57:50;;;;;;;;;;;;;;;21.55;55.27;99895.00;5053223;28;19948;-77
2023/09/16 03:00:15;;;;;;;;;;;;;;;21.46;56.85;99894.56;5071295;28;19920;-76
2023/09/16 03:02:41;;;;;;;;;;;;;;;21.40;56.97;99894.72;5071252;28;20305;-77
2023/09/16 03:05:06;;;;;;;;;;;;;;;21.39;55.67;99893.09;5071214;28;19963;-78
2023/09/16 03:07:31;;;;;;;;;;;;;;;21.33;57.23;99892.19;5071381;28;19920;-77
2023/09/16 03:09:56;;;;;;;;;;;;;;;21.28;56.22;99894.78;5071396;28;20020;-77
2023/09/16 03:12:24;;;;;;;;;;;;;;;21.21;56.04;99896.75;5072843;28;19916;-76
2023/09/16 03:14:49;;;;;;;;;;;;;;;21.17;56.37;99893.72;5056732;28;20309;-77
2023/09/16 03:17:14;;;;;;;;;;;;;;;21.13;57.54;99894.44;5074595;28;19912;-76
2023/09/16 03:19:40;;;;;;;;;;;;;;;21.09;56.85;99888.72;5074313;28;20006;-77
2023/09/16 03:22:05;;;;;;;;;;;;;;;21.13;56.20;99895.25;5074707;28;19921;-77
2023/09/16 03:24:30;;;;;;;;;;;;;;;21.13;57.17;99897.94;5074587;28;20331;-77
2023/09/16 03:26:55;;;;;;;;;;;;;;;21.14;56.09;99898.75;5056992;28;19912;-77
2023/09/16 03:29:21;;;;;;;;;;;;;;;21.11;56.30;99894.69;5074804;28;19938;-77
2023/09/16 03:31:46;;;;;;;;;;;;;;;21.10;57.62;99895.72;5074651;28;19951;-77
2023/09/16 03:34:11;;;;;;;;;;;;;;;21.11;56.04;99891.19;5074692;28;20377;-76
2023/09/16 03:36:37;;;;;;;;;;;;;;;21.13;55.47;99894.44;5074709;28;19908;-77
2023/09/16 03:39:03;;;;;;;;;;;;;;;21.13;56.09;99903.31;5074774;28;19920;-77
2023/09/16 03:41:28;;;;;;;;;;;;;;;21.18;56.40;99894.53;5074689;28;20351;-77
2023/09/16 03:43:53;;;;;;;;;;;;;;;21.19;56.30;99901.53;5074255;28;19965;-76
2023/09/16 03:46:18;;;;;;;;;;;;;;;21.25;56.06;99903.31;5074385;28;19912;-76
2023/09/16 03:48:44;;;;;;;;;;;;;;;21.28;56.95;99902.00;5056263;28;19970;-77
2023/09/16 03:51:09;;;;;;;;;;;;;;;21.25;56.59;99912.19;5074070;28;19918;-76
2023/09/16 03:53:35;;;;;;;;;;;;;;;21.22;55.06;99914.50;5055830;28;19924;-76
2023/09/16 03:56:05;;;;;;;;;;;;;;;21.20;55.88;99913.91;5073711;28;19931;-76
2023/09/16 03:58:30;;;;;;;;;;;;;;;21.17;57.21;99920.56;5074116;28;19969;-76
2023/09/16 04:00:55;;;;;;;;;;;;;;;21.12;56.20;99923.16;5074196;28;19912;-77
2023/09/16 04:03:20;;;;;;;;;;;;;;;21.11;56.09;99923.41;5077398;28;19912;-76
2023/09/16 04:05:47;;;;;;;;;;;;;;;21.06;56.67;99924.09;5076770;28;21600;-76
2023/09/16 04:08:13;;;;;;;;;;;;;;;21.02;56.50;99922.94;5055885;28;19913;-76
2023/09/16 04:10:38;;;;;;;;;;;;;;;20.95;56.88;99916.91;5074004;28;20453;-77
2023/09/16 04:13:03;;;;;;;;;;;;;;;20.94;56.77;99926.81;5073896;28;19917;-76
2023/09/16 04:15:28;;;;;;;;;;;;;;;20.93;56.84;99930.56;5073707;28;19916;-76
2023/09/16 04:17:53;;;;;;;;;;;;;;;20.92;57.41;99931.59;5073540;28;20369;-77
2023/09/16 04:20:19;;;;;;;;;;;;;;;20.95;55.62;99935.69;5073652;28;19916;-76
2023/09/16 04:22:44;;;;;;;;;;;;;;;20.94;57.19;99939.44;5073573;28;19973;-76
2023/09/16 04:25:10;;;;;;;;;;;;;;;20.93;55.96;99938.59;5076436;28;19958;-77
2023/09/16 04:27:35;;;;;;;;;;;;;;;20.91;57.05;99929.16;5060151;28;19919;-78
2023/09/16 04:30:00;;;;;;;;;;;;;;;20.90;56.46;99933.72;5073649;28;19916;-77
2023/09/16 04:32:25;;;;;;;;;;;;;;;20.90;57.27;99935.56;5073699;28;20363;-77
2023/09/16 04:34:51;;;;;;;;;;;;;;;20.92;57.48;99936.16;5073330;28;20003;-76
2023/09/16 04:37:16;;;;;;;;;;;;;;;20.92;57.70;99936.97;5073217;28;19908;-77
2023/09/16 04:39:42;;;;;;;;;;;;;;;21.00;56.64;99929.59;5073076;28;19959;-77
2023/09/16 04:42:08;;;;;;;;;;;;;;;21.03;56.89;99932.63;5073131;28;19920;-77
2023/09/16 04:44:38;;;;;;;;;;;;;;;21.08;57.00;99934.63;5055063;28;19912;-77
2023/09/16 04:47:03;;;;;;;;;;;;;;;21.12;56.25;99933.91;5073101;28;20282;-76
2023/09/16 04:49:29;;;;;;;;;;;;;;;21.14;57.28;99937.16;5054881;28;19912;-77
2023/09/16 04:51:54;;;;;;;;;;;;;;;21.18;56.52;99937.50;5073080;28;19960;-78
2023/09/16 04:54:19;;;;;;;;;;;;;;;21.24;56.04;99928.53;5072461;28;19912;-77
2023/09/16 04:56:44;;;;;;;;;;;;;;;21.30;56.82;99924.88;5072561;28;20347;-78
2023/09/16 04:59:10;;;;;;;;;;;;;;;21.35;55.12;99922.31;5054513;28;19926;-77
2023/09/16 05:01:35;;;;;;;;;;;;;;;21.39;55.38;99923.44;5072185;28;19924;-77
2023/09/16 05:04:00;;;;;;;;;;;;;;;21.44;55.37;99928.91;5072305;28;19923;-77
2023/09/16 05:06:25;;;;;;;;;;;;;;;21.46;56.09;99921.44;5072710;28;20046;-77
2023/09/16 05:08:53;;;;;;;;;;;;;;;21.51;55.40;99931.47;5072456;28;19944;-77
2023/09/16 05:11:18;;;;;;;;;;;;;;;21.56;55.88;99935.09;5072335;28;19913;-76
2023/09/16 05:13:45;;;;;;;;;;;;;;;21.55;56.23;99943.38;5072566;28;19923;-76
2023/09/16 05:16:10;;;;;;;;;;;;;;;21.59;55.53;99943.72;5072757;28;19916;-76
2023/09/16 05:18:36;;;;;;;;;;;;;;;21.62;55.80;99944.06;5072555;28;20407;-76
2023/09/16 05:21:01;;;;;;;;;;;;;;;21.66;55.91;99942.53;5072683;28;19919;-77
2023/09/16 05:23:26;;;;;;;;;;;;;;;21.73;55.31;99945.88;5054522;28;19912;-77
2023/09/16 05:25:52;;;;;;;;;;;;;;;21.77;55.96;99948.91;5054095;28;19970;-77
2023/09/16 05:28:17;;;;;;;;;;;;;;;21.75;55.82;99949.16;5072113;28;19963;-76
2023/09/16 05:30:43;;;;;;;;;;;;;;;21.75;54.91;99948.34;5072178;28;19912;-77
2023/09/16 05:33:10;;;;;;;;;;;;;;;21.73;55.04;99953.13;5072026;28;19970;-77
2023/09/16 05:35:35;;;;;;;;;;;;;;;21.73;54.65;99956.63;5071365;28;19919;-77
2023/09/16 05:38:01;;;;;;;;;;;;;;;21.69;54.83;99955.47;5053966;28;20300;-77
2023/09/16 05:40:26;;;;;;;;;;;;;;;21.74;55.89;99970.88;5072108;28;19913;-76
2023/09/16 05:42:51;;;;;;;;;;;;;;;21.77;56.20;99968.53;5072042;28;19913;-77
2023/09/16 05:45:16;;;;;;;;;;;;;;;21.83;56.24;99970.25;5054085;28;20001;-76
2023/09/16 05:47:42;;;;;;;;;;;;;;;21.89;55.93;99971.16;5054076;28;19927;-76
2023/09/16 05:50:07;;;;;;;;;;;;;;;21.96;56.26;99968.31;5071856;28;19912;-77
2023/09/16 05:52:33;;;;;;;;;;;;;;;22.00;55.98;99972.97;5071759;28;20465;-77
2023/09/16 05:54:58;;;;;;;;;;;;;;;22.05;55.91;99970.41;5071852;28;19966;-77
2023/09/16 05:57:23;;;;;;;;;;;;;;;22.12;55.75;99965.69;5071805;28;19948;-76
2023/09/16 05:59:48;;;;;;;;;;;;;;;22.24;55.33;99972.88;5071637;28;19916;-76
2023/09/16 06:02:15;;;;;;;;;;;;;;;22.31;55.65;99965.47;5071610;28;20416;-78
2023/09/16 06:04:41;;;;;;;;;;;;;;;22.40;55.58;99964.00;5071676;28;19912;-76
2023/09/16 06:07:06;;;;;;;;;;;;;;;22.47;56.18;99959.28;5053849;28;19962;-77
2023/09/16 06:09:31;;;;;;;;;;;;;;;22.53;54.93;99966.38;5071911;28;19912;-77
2023/09/16 06:11:56;;;;;;;;;;;;;;;22.62;54.97;99961.38;5071928;28;20014;-77
2023/09/16 06:14:22;;;;;;;;;;;;;;;22.71;55.35;99960.72;5071725;28;19912;-77
2023/09/16 06:16:47;;;;;;;;;;;;;;;22.79;54.60;99957.59;5071802;28;19930;-77
2023/09/16 06:19:12;;;;;;;;;;;;;;;22.88;53.85;99962.59;5072004;28;19970;-77
2023/09/16 06:21:38;;;;;;;;;;;;;;;22.95;55.37;99957.84;5071822;28;19913;-77
2023/09/16 06:24:03;;;;;;;;;;;;;;;22.98;54.47;99966.25;5071804;28;19919;-76
2023/09/16 06:26:29;;;;;;;;;;;;;;;23.08;53.75;99970.97;5071918;28;19912;-77
2023/09/16 06:28:54;;;;;;;;;;;;;;;23.18;54.60;99967.59;5072055;28;19913;-78
2023/09/16 06:31:19;;;;;;;;;;;;;;;23.25;55.22;99979.00;5053831;28;19931;-77
2023/09/16 06:33:44;;;;;;;;;;;;;;;23.33;54.09;99983.94;5071863;28;20381;-77
2023/09/16 06:36:10;;;;;;;;;;;;;;;23.38;54.44;99979.44;5071585;28;19916;-77
2023/09/16 06:38:35;;;;;;;;;;;;;;;23.46;54.27;99984.38;5071817;28;19912;-78
2023/09/16 06:41:00;;;;;;;;;;;;;;;23.53;53.96;99988.78;5071880;28;19919;-76
2023/09/16 06:43:25;;;;;;;;;;;;;;;23.59;53.96;99991.31;5071398;28;19920;-76
2023/09/16 06:45:51;;;;;;;;;;;;;;;23.67;53.32;99995.44;5071314;28;20309;-76
2023/09/16 06:48:16;;;;;;;;;;;;;;;23.79;53.15;99996.13;5073746;28;19998;-77
2023/09/16 06:50:45;;;;;;;;;;;;;;;23.87;52.93;100003.75;5057145;28;19965;-76
2023/09/16 06:53:10;;;;;;;;;;;;;;;23.95;52.58;99997.09;5075033;28;19917;-76
2023/09/16 06:55:35;;;;;;;;;;;;;;;23.99;52.38;100000.91;5074945;28;19912;-76
2023/09/16 06:58:04;;;;;;;;;;;;;;;23.99;52.19;100004.44;5077978;28;19912;-77
2023/09/16 07:00:29;;;;;;;;;;;;;;;24.02;52.48;100003.09;5058603;28;20286;-77
2023/09/16 07:02:57;;;;;;;;;;;;;;;24.05;51.93;100005.28;5056648;28;19974;-77
2023/09/16 07:05:22;;;;;;;;;;;;;;;24.12;52.14;100011.28;5074586;28;19919;-77
2023/09/16 07:07:47;;;;;;;;;;;;;;;24.17;52.21;100005.94;5074604;28;20317;-77
2023/09/16 07:10:13;;;;;;;;;;;;;;;24.21;51.91;100017.84;5074716;28;19956;-77
2023/09/16 07:12:38;;;;;;;;;;;;;;;24.24;51.63;100009.25;5074814;28;19917;-77
2023/09/16 07:15:03;;;;;;;;;;;;;;;24.28;51.80;100013.09;5056857;28;19927;-76
2023/09/16 07:17:29;;;;;;;;;;;;;;;24.32;51.17;100010.69;5074741;28;20007;-77
2023/09/16 07:19:54;;;;;;;;;;;;;;;24.35;51.81;100024.50;5058758;28;19919;-76
2023/09/16 07:22:20;;;;;;;;;;;;;;;24.41;50.93;100014.53;5075767;28;19972;-77
2023/09/16 07:24:45;;;;;;;;;;;;;;;24.46;50.61;100020.00;5074609;28;19908;-77
2023/09/16 07:27:11;;;;;;;;;;;;;;;24.51;50.72;100022.72;5074431;28;20373;-77
2023/09/16 07:29:37;;;;;;;;;;;;;;;24.57;51.03;100032.53;5074280;28;19912;-77
2023/09/16 07:32:02;;;;;;;;;;;;;;;24.66;50.46;100030.16;5074173;28;20380;-77
2023/09/16 07:34:27;;;;;;;;;;;;;;;24.75;49.86;100023.22;5074296;28;19912;-77
2023/09/16 07:36:53;;;;;;;;;;;;;;;24.86;50.30;100032.19;5074174;28;19916;-77
2023/09/16 07:39:18;;;;;;;;;;;;;;;24.90;49.60;100022.50;5074241;28;19911;-77
2023/09/16 07:41:43;;;;;;;;;;;;;;;24.96;49.55;100032.25;5074090;28;19999;-79
2023/09/16 07:44:08;;;;;;;;;;;;;;;24.98;50.02;100028.25;5074170;28;19913;-77
2023/09/16 07:46:37;;;;;;;;;;;;;;;25.07;49.61;100031.28;5056155;28;19904;-78
2023/09/16 07:49:02;;;;;;;;;;;;;;;25.13;49.74;100027.53;5073914;28;19952;-78
2023/09/16 07:51:27;;;;;;;;;;;;;;;25.23;49.38;100027.56;5073868;28;19948;-77
2023/09/16 07:53:53;;;;;;;;;;;;;;;25.32;48.58;100028.75;5055710;28;19967;-77
2023/09/16 07:56:20;;;;;;;;;;;;;;;25.37;48.13;100029.84;5074047;28;19913;-77
2023/09/16 07:58:45;;;;;;;;;;;;;;;25.43;48.05;100023.38;5055445;28;20358;-77
2023/09/16 08:01:10;;;;;;;;;;;;;;;25.57;48.05;100019.09;5055875;28;19940;-77
2023/09/16 08:03:37;;;;;;;;;;;;;;;25.70;47.53;100017.81;5073741;28;19951;-77
2023/09/16 08:06:03;;;;;;;;;;;;;;;25.86;47.17;100025.72;5073504;28;19912;-77
2023/09/16 08:08:28;;;;;;;;;;;;;;;25.97;46.82;100024.66;5073651;28;19920;-77
2023/09/16 08:10:53;;;;;;;;;;;;;;;26.15;47.27;100023.38;5073632;28;19995;-75
2023/09/16 08:13:18;;;;;;;;;;;;;;;26.26;46.78;100024.19;5073402;28;20309;-78
2023/09/16 08:15:44;;;;;;;;;;;;;;;26.32;46.74;100025.81;5073386;28;19912;-78
2023/09/16 08:18:09;;;;;;;;;;;;;;;26.30;46.48;100027.97;5073339;28;19991;-75
2023/09/16 08:20:34;;;;;;;;;;;;;;;26.33;46.48;100035.59;5056086;28;20010;-77
2023/09/16 08:23:00;;;;;;;;;;;;;;;26.37;45.89;100028.56;5073653;28;19974;-76
2023/09/16 08:25:25;;;;;;;;;;;;;;;26.39;46.17;100031.00;5055851;28;20009;-77
2023/09/16 08:27:50;;;;;;;;;;;;;;;26.39;45.59;100037.22;5073327;28;19970;-77
2023/09/16 08:30:15;;;;;;;;;;;;;;;26.48;45.73;100045.63;5073387;28;19912;-77
2023/09/16 08:32:41;;;;;;;;;;;;;;;26.54;45.81;100049.94;5073044;28;19923;-77
2023/09/16 08:35:07;;;;;;;;;;;;;;;26.64;45.24;100057.25;5055237;28;19961;-76
2023/09/16 08:37:33;;;;;;;;;;;;;;;26.62;44.72;100049.41;5073084;28;19912;-77
2023/09/16 08:39:58;;;;;;;;;;;;;;;26.66;44.13;100057.81;5073068;28;19912;-77
2023/09/16 08:42:37;;;;;;;;;;;;;;;26.68;44.57;100061.88;5073027;28;19935;-76
2023/09/16 08:45:04;;;;;;;;;;;;;;;26.70;44.53;100054.28;5073037;28;19920;-76
2023/09/16 08:47:33;;;;;;;;;;;;;;;26.64;44.86;100066.19;5072688;28;19912;-76
2023/09/16 08:50:06;;;;;;;;;;;;;;;26.55;45.48;100057.81;5072853;28;20029;-76
2023/09/16 08:52:55;;;;;;;;;;;;;;;26.45;46.27;100056.97;5072874;28;20095;-77
2023/09/16 08:55:20;;;;;;;;;;;;;;;26.39;46.04;100064.28;5072547;28;19943;-76
2023/09/16 08:57:54;;;;;;;;;;;;;;;26.40;46.33;100065.09;5072667;28;19913;-76
2023/09/16 09:00:20;;;;;;;;;;;;;;;26.34;46.86;100061.59;5072987;28;19912;-76
2023/09/16 09:02:46;;;;;;;;;;;;;;;26.28;46.65;100060.72;5072613;28;19927;-76
2023/09/16 09:05:11;;;;;;;;;;;;;;;26.24;46.86;100059.66;5072430;28;19935;-76
2023/09/16 09:07:39;;;;;;;;;;;;;;;26.28;47.13;100046.38;5072648;28;19912;-76
2023/09/16 09:10:04;;;;;;;;;;;;;;;26.34;46.68;100045.34;5072103;28;20393;-76
2023/09/16 09:12:32;;;;;;;;;;;;;;;26.45;46.51;100054.28;5072331;28;19923;-75
2023/09/16 09:14:59;;;;;;;;;;;;;;;26.45;46.34;100055.09;5054168;28;19923;-77
2023/09/16 09:17:24;;;;;;;;;;;;;;;26.39;46.88;100058.06;5072212;28;19913;-75
2023/09/16 09:19:50;;;;;;;;;;;;;;;26.42;47.23;100062.94;5072499;28;19965;-76
2023/09/16 09:22:15;;;;;;;;;;;;;;;26.40;47.20;100049.66;5072335;28;19919;-76
2023/09/16 09:24:41;;;;;;;;;;;;;;;26.47;46.63;100050.22;5072190;28;20003;-76
2023/09/16 09:27:06;;;;;;;;;;;;;;;26.51;47.09;100054.00;5071948;28;20006;-78
2023/09/16 09:29:31;;;;;;;;;;;;;;;26.51;46.91;100054.00;5072009;28;19913;-76
2023/09/16 09:31:57;;;;;;;;;;;;;;;26.45;46.75;100057.81;5072042;28;19962;-77
2023/09/16 09:34:26;;;;;;;;;;;;;;;26.32;46.93;100058.31;5071948;28;20426;-77
2023/09/16 09:36:52;;;;;;;;;;;;;;;26.19;47.37;100059.63;5071818;28;19912;-77
2023/09/16 09:39:18;;;;;;;;;;;;;;;26.10;47.77;100060.44;5072005;28;19919;-77
2023/09/16 09:41:45;;;;;;;;;;;;;;;26.06;47.74;100064.75;5071949;28;19912;-76
2023/09/16 09:44:10;;;;;;;;;;;;;;;25.96;48.41;100055.50;5071836;28;19939;-77
2023/09/16 09:46:37;;;;;;;;;;;;;;;25.89;48.42;100057.66;5071849;28;20400;-77
2023/09/16 09:49:02;;;;;;;;;;;;;;;25.79;47.76;100052.19;5071990;28;19912;-76
2023/09/16 09:51:28;;;;;;;;;;;;;;;25.67;48.20;100057.03;5071895;28;19935;-77
2023/09/16 09:53:53;;;;;;;;;;;;;;;25.55;48.83;100053.72;5073114;28;19951;-77
2023/09/16 09:56:19;;;;;;;;;;;;;;;25.47;49.54;100055.03;5073021;28;19912;-77
2023/09/16 09:58:44;;;;;;;;;;;;;;;25.41;48.90;100068.78;5071948;28;19918;-77
2023/09/16 10:01:10;;;;;;;;;;;;;;;25.35;48.91;100057.13;5072001;28;19953;-77
2023/09/16 10:03:35;;;;;;;;;;;;;;;25.22;49.72;100062.97;5071666;28;19919;-77
2023/09/16 10:06:12;;;;;;;;;;;;;;;25.15;49.86;100075.91;5071625;28;19960;-77
2023/09/16 10:08:37;;;;;;;;;;;;;;;25.00;50.41;100061.22;5071566;28;20305;-76
2023/09/16 10:11:02;;;;;;;;;;;;;;;24.90;51.18;100063.81;5071775;28;19920;-77
2023/09/16 10:13:28;;;;;;;;;;;;;;;24.84;50.44;100066.75;5071685;28;19926;-77
2023/09/16 10:15:54;;;;;;;;;;;;;;;24.76;50.57;100059.94;5072011;28;19919;-76
2023/09/16 10:18:20;;;;;;;;;;;;;;;24.71;50.43;100054.50;5071870;28;19913;-76
2023/09/16 10:20:45;;;;;;;;;;;;;;;24.74;50.73;100055.88;5053821;28;19909;-76
2023/09/16 10:23:11;;;;;;;;;;;;;;;24.76;50.23;100051.84;5057628;28;19919;-77
2023/09/16 10:25:36;;;;;;;;;;;;;;;24.73;50.54;100056.94;5075477;28;19952;-76
2023/09/16 10:28:06;;;;;;;;;;;;;;;24.69;49.76;100054.75;5075385;28;20001;-77
2023/09/16 10:30:32;;;;;;;;;;;;;;;24.62;50.72;100056.88;5075492;28;19919;-77
2023/09/16 10:33:02;;;;;;;;;;;;;;;24.59;50.79;100046.59;5075375;28;19917;-77
2023/09/16 10:35:28;;;;;;;;;;;;;;;24.58;51.50;100047.66;5075373;28;19912;-78
2023/09/16 10:37:55;;;;;;;;;;;;;;;24.56;51.63;100047.09;5075244;28;19952;-77
2023/09/16 10:40:20;;;;;;;;;;;;;;;24.55;50.92;100041.97;5075378;28;19917;-75
2023/09/16 10:42:46;;;;;;;;;;;;;;;24.55;51.42;100037.38;5075153;28;19919;-76
2023/09/16 10:45:12;;;;;;;;;;;;;;;24.54;51.09;100037.63;5074912;28;20007;-76
2023/09/16 10:47:38;;;;;;;;;;;;;;;24.50;51.41;100042.69;5074826;28;19912;-77
2023/09/16 10:50:03;;;;;;;;;;;;;;;24.46;51.27;100038.06;5075181;28;20378;-77
2023/09/16 10:52:41;;;;;;;;;;;;;;;24.40;51.65;100040.72;5074959;28;19920;-77
2023/09/16 10:55:19;;;;;;;;;;;;;;;24.32;52.56;100040.38;5056894;28;20375;-74
2023/09/16 10:58:03;;;;;;;;;;;;;;;24.25;52.39;100031.66;5075068;28;20381;-76
2023/09/16 11:00:37;;;;;;;;;;;;;;;24.15;54.64;100032.38;5075147;28;19913;-76
2023/09/16 11:03:04;;;;;;;;;;;;;;;24.09;53.79;100031.50;5056718;28;20004;-76
2023/09/16 11:05:30;;;;;;;;;;;;;;;23.99;55.88;100027.88;5074773;28;20514;-75
2023/09/16 11:07:56;;;;;;;;;;;;;;;23.90;58.23;100032.94;5074427;28;19962;-73
2023/09/16 11:10:23;;;;;;;;;;;;;;;23.82;58.30;100029.88;5074691;28;19986;-76
2023/09/16 11:12:49;;;;;;;;;;;;;;;23.75;56.34;100020.06;5074361;28;19917;-75
2023/09/16 11:15:15;;;;;;;;;;;;;;;23.62;58.03;100023.16;5074708;28;19912;-73
2023/09/16 11:17:40;;;;;;;;;;;;;;;23.53;59.85;100018.41;5074692;28;19916;-74
2023/09/16 11:20:18;;;;;;;;;;;;;;;23.48;57.56;100019.16;5074668;28;19912;-75
2023/09/16 11:22:47;;;;;;;;;;;;;;;23.48;58.61;100015.66;5056679;28;20105;-74
2023/09/16 11:25:13;;;;;;;;;;;;;;;23.41;60.81;100022.06;5074768;28;19942;-76
2023/09/16 11:27:38;;;;;;;;;;;;;;;23.33;60.48;100013.59;5074271;28;19999;-76
2023/09/16 11:30:13;;;;;;;;;;;;;;;23.33;60.04;100013.59;5056271;28;20425;-76
2023/09/16 11:32:39;;;;;;;;;;;;;;;23.27;60.38;100006.50;5073262;28;19920;-76
2023/09/16 11:35:05;;;;;;;;;;;;;;;23.24;61.22;100001.63;5073992;28;19979;-75
2023/09/16 11:37:30;;;;;;;;;;;;;;;23.17;62.57;99999.09;5074022;28;19942;-76
2023/09/16 11:39:59;;;;;;;;;;;;;;;23.13;60.72;100004.19;5073796;28;20430;-77
2023/09/16 11:42:24;;;;;;;;;;;;;;;23.04;64.91;99994.91;5073774;28;19916;-75
2023/09/16 11:44:50;;;;;;;;;;;;;;;23.02;62.90;99994.31;5074156;28;19966;-75
2023/09/16 11:47:16;;;;;;;;;;;;;;;23.02;62.06;99996.19;5073965;28;19974;-74
2023/09/16 11:49:41;;;;;;;;;;;;;;;22.99;63.62;99986.72;5073765;28;19982;-74
2023/09/16 11:52:06;;;;;;;;;;;;;;;22.98;64.33;99987.78;5073505;28;20381;-74
2023/09/16 11:54:32;;;;;;;;;;;;;;;23.02;63.94;99988.09;5073659;28;19918;-74
2023/09/16 11:56:57;;;;;;;;;;;;;;;22.98;65.00;99979.69;5055721;28;19912;-74
2023/09/16 11:59:23;;;;;;;;;;;;;;;22.88;64.77;99982.25;5073497;28;20407;-73
2023/09/16 12:01:49;;;;;;;;;;;;;;;22.92;64.15;99974.50;5073229;28;19943;-76
2023/09/16 12:04:15;;;;;;;;;;;;;;;22.93;61.80;99968.88;5055526;28;19962;-76
2023/09/16 12:06:41;;;;;;;;;;;;;;;23.00;63.12;99971.38;5055630;28;19913;-75
2023/09/16 12:09:07;;;;;;;;;;;;;;;23.09;63.83;99967.22;5073547;28;20454;-76
2023/09/16 12:11:33;;;;;;;;;;;;;;;23.14;62.14;99962.72;5073296;28;20328;-75
2023/09/16 12:14:00;;;;;;;;;;;;;;;23.19;63.94;99961.16;5073269;28;19923;-76
2023/09/16 12:16:26;;;;;;;;;;;;;;;23.27;63.07;99961.53;5055265;28;19966;-77
2023/09/16 12:18:51;;;;;;;;;;;;;;;23.34;65.56;99956.75;5055362;28;19917;-76
2023/09/16 12:21:17;;;;;;;;;;;;;;;23.44;62.24;99956.88;5073159;28;20382;-76
2023/09/16 12:23:42;;;;;;;;;;;;;;;23.64;64.01;99955.50;5055098;28;20007;-76
2023/09/16 12:26:11;;;;;;;;;;;;;;;23.79;61.52;99946.78;5073028;28;19942;-77
2023/09/16 12:28:37;;;;;;;;;;;;;;;24.01;63.33;99942.13;5072933;28;20007;-77
2023/09/16 12:31:03;;;;;;;;;;;;;;;24.12;60.83;99934.94;5073089;28;20367;-76
2023/09/16 12:33:40;;;;;;;;;;;;;;;24.26;61.69;99931.53;5072975;28;19928;-77
2023/09/16 12:36:06;;;;;;;;;;;;;;;24.43;60.69;99933.31;5072883;28;19947;-76